createdAt,value
2023-04-12T00:01:01.400Z,100566.00
2023-04-12T00:03:28.393Z,100562.00
2023-04-12T00:05:55.505Z,100555.00
2023-04-12T00:08:26.338Z,100549.00
2023-04-12T00:10:53.277Z,100550.00
2023-04-12T00:13:20.390Z,100538.00
2023-04-12T00:15:47.237Z,100522.00
2023-04-12T00:18:14.158Z,100524.00
2023-04-12T00:20:41.098Z,100527.00
2023-04-12T00:23:09.809Z,100534.00
2023-04-12T00:25:39.291Z,100536.00
2023-04-12T00:28:06.320Z,100522.00
2023-04-12T00:30:33.324Z,100519.00
2023-04-12T00:33:00.295Z,100537.00
2023-04-12T00:35:27.221Z,100517.00
2023-04-12T00:37:54.793Z,100514.00
2023-04-12T00:40:22.312Z,100516.00
2023-04-12T00:42:49.136Z,100507.00
2023-04-12T00:45:16.333Z,100509.00
2023-04-12T00:47:43.572Z,100500.00
2023-04-12T00:50:11.156Z,100496.00
2023-04-12T00:52:39.194Z,100497.00
2023-04-12T00:55:07.468Z,100501.00
2023-04-12T00:57:37.066Z,100501.00
2023-04-12T01:00:06.195Z,100509.00
2023-04-12T01:02:33.480Z,100490.00
2023-04-12T01:05:01.071Z,100497.00
2023-04-12T01:07:54.379Z,100496.00
2023-04-12T01:10:38.862Z,100497.00
2023-04-12T01:13:09.989Z,100499.00
2023-04-12T01:15:39.740Z,100497.00
2023-04-12T01:18:13.635Z,100488.00
2023-04-12T01:20:55.048Z,100486.00
2023-04-12T01:23:40.528Z,100483.00
2023-04-12T01:26:44.439Z,100480.00
2023-04-12T01:29:14.554Z,100483.00
2023-04-12T01:31:49.545Z,100490.00
2023-04-12T01:34:16.978Z,100476.00
2023-04-12T01:36:47.209Z,100465.00
2023-04-12T01:39:14.372Z,100473.00
2023-04-12T01:41:48.899Z,100457.00
2023-04-12T01:44:16.437Z,100460.00
2023-04-12T01:46:44.666Z,100458.00
2023-04-12T01:49:13.010Z,100450.00
2023-04-12T01:52:01.232Z,100445.00
2023-04-12T01:54:30.493Z,100436.00
2023-04-12T01:57:01.311Z,100443.00
2023-04-12T01:59:43.601Z,100434.00
2023-04-12T02:02:13.783Z,100433.00
2023-04-12T02:04:41.607Z,100431.00
2023-04-12T02:07:09.493Z,100425.00
2023-04-12T02:09:39.731Z,100424.00
2023-04-12T02:12:07.421Z,100422.00
2023-04-12T02:14:34.426Z,100413.00
2023-04-12T02:17:04.386Z,100422.00
2023-04-12T02:19:32.293Z,100408.00
2023-04-12T02:21:59.175Z,100397.00
2023-04-12T02:24:27.301Z,100401.00
2023-04-12T02:26:55.095Z,100396.00
2023-04-12T02:29:22.143Z,100397.00
2023-04-12T02:31:49.027Z,100393.00
2023-04-12T02:34:17.992Z,100382.00
2023-04-12T02:36:48.735Z,100371.00
2023-04-12T02:39:18.763Z,100365.00
2023-04-12T02:41:46.033Z,100377.00
2023-04-12T02:44:13.044Z,100367.00
2023-04-12T02:46:39.859Z,100358.00
2023-04-12T02:49:06.789Z,100353.00
2023-04-12T02:51:33.654Z,100337.00
2023-04-12T02:54:01.292Z,100338.00
2023-04-12T02:56:29.917Z,100336.00
2023-04-12T02:58:56.909Z,100336.00
2023-04-12T03:01:23.917Z,100326.00
2023-04-12T03:03:50.884Z,100321.00
2023-04-12T03:06:17.757Z,100315.00
2023-04-12T03:08:44.842Z,100315.00
2023-04-12T03:11:11.692Z,100305.00
2023-04-12T03:13:38.455Z,100299.00
2023-04-12T03:16:21.961Z,100298.00
2023-04-12T03:18:50.417Z,100299.00
2023-04-12T03:21:17.822Z,100300.00
2023-04-12T03:23:44.725Z,100290.00
2023-04-12T03:26:11.717Z,100282.00
2023-04-12T03:28:38.577Z,100283.00
2023-04-12T03:31:05.751Z,100288.00
2023-04-12T03:33:32.534Z,100279.00
2023-04-12T03:35:59.434Z,100278.00
2023-04-12T03:38:26.373Z,100275.00
2023-04-12T03:40:53.183Z,100273.00
2023-04-12T03:43:20.035Z,100275.00
2023-04-12T03:45:46.867Z,100264.00
2023-04-12T03:48:13.859Z,100269.00
2023-04-12T03:50:48.489Z,100258.00
2023-04-12T03:53:15.608Z,100259.00
2023-04-12T03:55:43.326Z,100243.00
2023-04-12T03:58:10.209Z,100248.00
2023-04-12T04:00:36.990Z,100221.00
2023-04-12T04:03:05.664Z,100241.00
2023-04-12T04:05:32.605Z,100236.00
2023-04-12T04:08:02.237Z,100217.00
2023-04-12T04:10:29.339Z,100206.00
2023-04-12T04:12:56.261Z,100202.00
2023-04-12T04:15:23.239Z,100205.00
2023-04-12T04:17:50.217Z,100190.00
2023-04-12T04:20:18.049Z,100186.00
2023-04-12T04:22:48.144Z,100178.00
2023-04-12T04:25:15.492Z,100192.00
2023-04-12T04:27:44.811Z,100193.00
2023-04-12T04:30:12.399Z,100183.00
2023-04-12T04:32:39.535Z,100174.00
2023-04-12T04:35:07.025Z,100177.00
2023-04-12T04:37:37.222Z,100173.00
2023-04-12T04:40:14.038Z,100159.00
2023-04-12T04:42:42.890Z,100162.00
2023-04-12T04:45:14.009Z,100150.00
2023-04-12T04:47:41.248Z,100155.00
2023-04-12T04:50:08.406Z,100151.00
2023-04-12T04:52:37.612Z,100146.00
2023-04-12T04:55:07.424Z,100146.00
2023-04-12T04:57:35.527Z,100143.00
2023-04-12T05:00:11.002Z,100137.00
2023-04-12T05:02:40.133Z,100145.00
2023-04-12T05:05:08.012Z,100135.00
2023-04-12T05:07:34.845Z,100135.00
2023-04-12T05:10:02.380Z,100133.00
2023-04-12T05:12:29.205Z,100126.00
2023-04-12T05:15:10.602Z,100131.00
2023-04-12T05:17:38.350Z,100120.00
2023-04-12T05:20:08.028Z,100140.00
2023-04-12T05:22:35.665Z,100111.00
2023-04-12T05:25:03.616Z,100108.00
2023-04-12T05:27:30.959Z,100114.00
2023-04-12T05:29:58.317Z,100109.00
2023-04-12T05:32:26.079Z,100114.00
2023-04-12T05:34:53.031Z,100112.00
2023-04-12T05:37:19.894Z,100107.00
2023-04-12T05:39:46.730Z,100113.00
2023-04-12T05:42:13.566Z,100088.00
2023-04-12T05:44:40.458Z,100099.00
2023-04-12T05:47:07.273Z,100094.00
2023-04-12T05:49:34.110Z,100093.00
2023-04-12T05:52:00.992Z,100102.00
2023-04-12T05:54:27.821Z,100084.00
2023-04-12T05:56:55.048Z,100087.00
2023-04-12T05:59:22.417Z,100086.00
2023-04-12T06:01:49.325Z,100089.00
2023-04-12T06:04:16.790Z,100069.00
2023-04-12T06:06:43.914Z,100064.00
2023-04-12T06:09:11.108Z,100063.00
2023-04-12T06:11:39.283Z,100051.00
2023-04-12T06:14:06.359Z,100062.00
2023-04-12T06:16:33.296Z,100070.00
2023-04-12T06:19:00.446Z,100070.00
2023-04-12T06:21:27.744Z,100073.00
2023-04-12T06:23:54.544Z,100058.00
2023-04-12T06:26:21.436Z,100050.00
2023-04-12T06:28:48.300Z,100056.00
2023-04-12T06:31:16.884Z,100048.00
2023-04-12T06:33:43.862Z,100066.00
2023-04-12T06:36:11.656Z,100058.00
2023-04-12T12:07:58.411Z,99630.00
2023-04-12T12:10:41.979Z,99613.00
2023-04-12T12:13:17.889Z,99638.00
2023-04-12T12:15:48.736Z,99618.00
2023-04-12T12:18:16.446Z,99603.00
2023-04-12T12:20:53.197Z,99599.00
2023-04-12T12:26:17.115Z,99567.00
2023-04-12T12:28:50.155Z,99569.00
2023-04-12T12:31:25.360Z,99560.00
2023-04-12T12:34:01.219Z,99567.00
2023-04-12T12:36:36.647Z,99571.00
2023-04-12T12:39:10.648Z,99561.00
2023-04-12T12:41:38.252Z,99544.00
2023-04-12T12:44:05.252Z,99542.00
2023-04-12T12:46:50.840Z,99537.00
2023-04-12T12:49:19.334Z,99525.00
2023-04-12T12:51:47.053Z,99530.00
2023-04-12T12:54:25.148Z,99523.00
2023-04-12T12:56:58.910Z,99517.00
2023-04-12T12:59:26.028Z,99513.00
2023-04-12T13:01:53.110Z,99505.00
2023-04-12T13:04:22.363Z,99506.00
2023-04-12T13:06:49.230Z,99497.00
2023-04-12T13:09:16.156Z,99507.00
2023-04-12T13:11:42.905Z,99483.00
2023-04-12T13:14:09.743Z,99504.00
2023-04-12T13:16:36.610Z,99487.00
2023-04-12T13:19:03.446Z,99487.00
2023-04-12T13:21:30.204Z,99484.00
2023-04-12T13:23:57.055Z,99491.00
2023-04-12T13:26:25.698Z,99485.00
2023-04-12T13:28:52.594Z,99468.00
2023-04-12T13:31:19.421Z,99463.00
2023-04-12T13:33:46.338Z,99460.00
2023-04-12T13:36:13.078Z,99468.00
2023-04-12T13:38:53.710Z,99464.00
2023-04-12T13:41:24.577Z,99470.00
2023-04-12T13:44:01.256Z,99472.00
2023-04-12T13:46:28.195Z,99475.00
2023-04-12T13:48:55.116Z,99469.00
2023-04-12T13:51:21.931Z,99469.00
2023-04-12T13:53:48.950Z,99464.00
2023-04-12T13:56:18.547Z,99459.00
2023-04-12T13:58:45.396Z,99468.00
2023-04-12T14:01:47.049Z,99471.00
2023-04-12T14:04:16.682Z,99452.00
2023-04-12T14:06:46.811Z,99459.00
2023-04-12T14:09:53.795Z,99452.00
2023-04-12T14:18:10.395Z,99452.00
2023-04-12T14:20:40.322Z,99438.00
2023-04-12T14:23:20.522Z,99450.00
2023-04-12T14:25:47.324Z,99429.00
2023-04-12T14:28:17.174Z,99445.00
2023-04-12T14:30:44.559Z,99449.00
2023-04-12T14:33:14.573Z,99453.00
2023-04-12T14:35:41.559Z,99439.00
2023-04-12T14:38:08.989Z,99442.00
2023-04-12T14:40:36.108Z,99432.00
2023-04-12T14:43:02.925Z,99446.00
2023-04-12T14:45:29.810Z,99442.00
2023-04-12T14:47:56.626Z,99439.00
2023-04-12T14:50:23.496Z,99427.00
2023-04-12T14:52:50.316Z,99427.00
2023-04-12T14:55:17.865Z,99441.00
2023-04-12T14:57:44.845Z,99427.00
2023-04-12T15:00:16.376Z,99435.00
2023-04-12T15:02:46.186Z,99429.00
2023-04-12T15:05:13.359Z,99421.00
2023-04-12T15:07:41.418Z,99420.00
2023-04-12T15:10:09.072Z,99421.00
2023-04-12T15:12:37.340Z,99412.00
2023-04-12T15:15:06.281Z,99408.00
2023-04-12T15:17:34.364Z,99418.00
2023-04-12T15:20:09.073Z,99416.00
2023-04-12T15:22:36.500Z,99418.00
2023-04-12T15:25:04.446Z,99418.00
2023-04-12T15:27:31.760Z,99418.00
2023-04-12T15:29:59.270Z,99417.00
2023-04-12T15:32:29.690Z,99409.00
2023-04-12T15:34:56.504Z,99410.00
2023-04-12T15:37:23.702Z,99415.00
2023-04-12T15:39:50.554Z,99407.00
2023-04-12T15:42:17.373Z,99409.00
2023-04-12T15:44:45.379Z,99407.00
2023-04-12T15:47:12.307Z,99399.00
2023-04-12T15:49:39.939Z,99408.00
2023-04-12T15:52:07.019Z,99398.00
2023-04-12T15:54:35.052Z,99401.00
2023-04-12T15:57:09.417Z,99393.00
2023-04-12T15:59:39.626Z,99397.00
2023-04-12T16:02:08.965Z,99391.00
2023-04-12T16:04:39.446Z,99392.00
2023-04-12T16:07:06.382Z,99394.00
2023-04-12T16:09:33.133Z,99392.00
2023-04-12T16:12:04.294Z,99387.00
2023-04-12T16:14:32.585Z,99390.00
2023-04-12T16:16:59.929Z,99379.00
2023-04-12T16:19:26.734Z,99386.00
2023-04-12T16:21:53.511Z,99385.00
2023-04-12T16:24:20.587Z,99380.00
2023-04-12T16:26:48.148Z,99382.00
2023-04-12T16:29:14.931Z,99372.00
2023-04-12T16:31:42.194Z,99363.00
2023-04-12T16:34:10.020Z,99369.00
2023-04-12T16:36:37.505Z,99359.00
2023-04-12T16:39:06.308Z,99369.00
2023-04-12T16:41:33.188Z,99360.00
2023-04-12T16:44:01.537Z,99355.00
2023-04-12T16:46:28.613Z,99361.00
2023-04-12T16:48:55.570Z,99358.00
2023-04-12T16:51:22.514Z,99348.00
2023-04-12T16:53:49.344Z,99365.00
2023-04-12T16:56:17.533Z,99358.00
2023-04-12T16:58:45.744Z,99358.00
2023-04-12T17:01:16.384Z,99356.00
2023-04-12T17:03:44.017Z,99355.00
2023-04-12T17:06:10.873Z,99356.00
2023-04-12T17:08:37.810Z,99355.00
2023-04-12T17:11:04.762Z,99354.00
2023-04-12T17:13:31.545Z,99355.00
2023-04-12T17:15:58.896Z,99369.00
2023-04-12T17:18:25.750Z,99352.00
2023-04-12T17:20:52.689Z,99363.00
2023-04-12T17:23:20.844Z,99356.00
2023-04-12T17:25:48.066Z,99364.00
2023-04-12T17:28:15.275Z,99355.00
2023-04-12T17:30:42.155Z,99348.00
2023-04-12T17:33:09.018Z,99343.00
2023-04-12T17:35:36.625Z,99345.00
2023-04-12T17:38:03.427Z,99341.00
2023-04-12T17:40:30.543Z,99341.00
2023-04-12T17:42:57.291Z,99337.00
2023-04-12T17:45:24.280Z,99341.00
2023-04-12T17:47:51.573Z,99338.00
2023-04-12T17:50:18.561Z,99341.00
2023-04-12T17:52:45.608Z,99341.00
2023-04-12T17:55:12.855Z,99335.00
2023-04-12T17:57:39.988Z,99347.00
2023-04-12T18:00:11.818Z,99337.00
2023-04-12T18:02:39.846Z,99326.00
2023-04-12T18:05:07.548Z,99330.00
2023-04-12T18:07:34.494Z,99332.00
2023-04-12T18:10:02.377Z,99327.00
2023-04-12T18:12:29.259Z,99346.00
2023-04-12T18:14:56.149Z,99327.00
2023-04-12T18:17:24.440Z,99334.00
2023-04-12T18:19:53.174Z,99329.00
2023-04-12T18:22:19.969Z,99327.00
2023-04-12T18:24:46.790Z,99323.00
2023-04-12T18:27:13.591Z,99328.00
2023-04-12T18:29:40.553Z,99340.00
2023-04-12T18:32:07.442Z,99340.00
2023-04-12T18:34:34.263Z,99330.00
2023-04-12T18:37:04.019Z,99338.00
2023-04-12T18:39:31.083Z,99331.00
2023-04-12T18:41:58.180Z,99329.00
2023-04-12T18:44:25.507Z,99331.00
2023-04-12T18:46:52.728Z,99328.00
2023-04-12T18:49:19.657Z,99330.00
2023-04-12T18:51:46.753Z,99334.00
2023-04-12T18:54:15.125Z,99326.00
2023-04-12T18:56:44.783Z,99345.00
2023-04-12T18:59:17.264Z,99335.00
2023-04-12T19:01:44.924Z,99335.00
2023-04-12T19:04:12.175Z,99330.00
2023-04-12T19:06:39.135Z,99326.00
2023-04-12T19:09:06.284Z,99338.00
2023-04-12T19:11:35.515Z,99325.00
2023-04-12T19:14:03.816Z,99331.00
2023-04-12T19:16:32.365Z,99328.00
2023-04-12T19:19:00.195Z,99329.00
2023-04-12T19:21:30.057Z,99333.00
2023-04-12T19:23:57.010Z,99330.00
2023-04-12T19:26:24.110Z,99328.00
2023-04-12T19:28:55.422Z,99322.00
2023-04-12T19:31:23.605Z,99321.00
2023-04-12T19:33:50.480Z,99321.00
2023-04-12T19:36:17.405Z,99323.00
2023-04-12T19:38:48.618Z,99320.00
2023-04-12T19:41:17.722Z,99324.00
2023-04-12T19:43:44.476Z,99321.00
2023-04-12T19:46:11.821Z,99317.00
2023-04-12T19:48:38.834Z,99309.00
2023-04-12T19:51:05.827Z,99298.00
2023-04-12T19:53:33.347Z,99300.00
2023-04-12T19:56:00.847Z,99296.00
2023-04-12T19:58:27.760Z,99300.00
2023-04-12T20:00:54.987Z,99306.00
2023-04-12T20:03:24.501Z,99304.00
2023-04-12T20:05:51.523Z,99306.00
2023-04-12T20:08:18.274Z,99310.00
2023-04-12T20:10:45.137Z,99316.00
2023-04-12T20:13:15.371Z,99323.00
2023-04-12T20:15:42.889Z,99317.00
2023-04-12T20:18:11.401Z,99314.00
2023-04-12T20:20:38.308Z,99322.00
2023-04-12T20:23:05.198Z,99310.00
2023-04-12T20:25:37.746Z,99311.00
2023-04-12T20:28:04.739Z,99299.00
2023-04-12T20:30:31.577Z,99304.00
2023-04-12T20:32:58.703Z,99304.00
2023-04-12T20:35:25.759Z,99291.00
2023-04-12T20:37:52.904Z,99292.00
2023-04-12T20:40:20.564Z,99305.00
2023-04-12T20:42:47.841Z,99284.00
2023-04-12T20:45:17.775Z,99289.00
2023-04-12T20:47:44.939Z,99283.00
2023-04-12T20:50:12.440Z,99281.00
2023-04-12T20:52:39.602Z,99277.00
2023-04-12T20:55:07.408Z,99280.00
2023-04-12T20:57:35.106Z,99275.00
2023-04-12T21:00:07.103Z,99261.00
2023-04-12T21:02:34.258Z,99265.00
2023-04-12T21:05:01.199Z,99271.00
2023-04-12T21:07:28.084Z,99267.00
2023-04-12T21:09:54.877Z,99271.00
2023-04-12T21:12:21.723Z,99265.00
2023-04-12T21:14:50.405Z,99270.00
2023-04-12T21:17:22.389Z,99270.00
2023-04-12T21:19:50.278Z,99284.00
2023-04-12T21:22:17.274Z,99296.00
2023-04-12T21:24:44.612Z,99293.00
2023-04-12T21:27:11.412Z,99286.00
2023-04-12T21:29:41.378Z,99295.00
2023-04-12T21:32:09.371Z,99289.00
2023-04-12T21:34:37.288Z,99285.00
2023-04-12T21:37:04.342Z,99274.00
2023-04-12T21:39:32.347Z,99284.00
2023-04-12T21:41:59.131Z,99284.00
2023-04-12T21:44:26.681Z,99304.00
2023-04-12T21:46:53.557Z,99309.00
2023-04-12T21:49:20.505Z,99299.00
2023-04-12T21:51:49.128Z,99307.00
2023-04-12T21:54:16.434Z,99297.00
2023-04-12T21:56:43.453Z,99287.00
2023-04-12T21:59:10.286Z,99290.00
2023-04-12T22:01:37.391Z,99293.00
2023-04-12T22:04:04.351Z,99283.00
2023-04-12T22:06:31.377Z,99290.00
2023-04-12T22:09:01.883Z,99280.00
2023-04-12T22:11:30.517Z,99290.00
2023-04-12T22:13:57.994Z,99277.00
2023-04-12T22:16:24.972Z,99284.00
2023-04-12T22:18:52.921Z,99285.00
2023-04-12T22:21:19.831Z,99315.00
2023-04-12T22:23:46.800Z,99324.00
2023-04-12T22:26:13.738Z,99321.00
2023-04-12T22:28:41.425Z,99307.00
2023-04-12T22:31:08.605Z,99324.00
2023-04-12T22:33:36.955Z,99326.00
2023-04-12T22:36:06.044Z,99329.00
2023-04-12T22:38:37.161Z,99342.00
2023-04-12T22:41:04.222Z,99348.00
2023-04-12T22:43:42.608Z,99341.00
2023-04-12T22:46:16.174Z,99352.00
2023-04-12T22:48:49.532Z,99352.00
2023-04-12T22:51:16.664Z,99346.00
2023-04-12T22:53:43.699Z,99362.00
2023-04-12T22:56:11.261Z,99361.00
2023-04-12T22:58:40.182Z,99348.00
2023-04-12T23:01:07.343Z,99339.00
2023-04-12T23:03:34.336Z,99343.00
2023-04-12T23:06:01.151Z,99345.00
2023-04-12T23:08:29.068Z,99351.00
2023-04-12T23:11:02.353Z,99345.00
2023-04-12T23:13:29.834Z,99345.00
2023-04-12T23:15:57.005Z,99344.00
2023-04-12T23:18:25.759Z,99333.00
2023-04-12T23:20:53.967Z,99334.00
2023-04-12T23:23:23.538Z,99358.00
2023-04-12T23:25:50.670Z,99341.00
2023-04-12T23:28:19.424Z,99344.00
2023-04-12T23:30:48.904Z,99350.00
2023-04-12T23:33:20.213Z,99342.00
2023-04-12T23:35:52.488Z,99344.00
2023-04-12T23:38:35.389Z,99334.00
2023-04-12T23:41:04.201Z,99337.00
2023-04-12T23:43:32.669Z,99330.00
2023-04-12T23:45:59.986Z,99337.00
2023-04-12T23:48:27.192Z,99329.00
2023-04-12T23:50:54.303Z,99331.00
2023-04-12T23:53:21.530Z,99323.00
2023-04-12T23:55:50.380Z,99316.00
2023-04-12T23:58:17.803Z,99314.00
